Time;durP1;ratioP1;P1;durP2;ratioP2;P2;SDS_P1;SDS_P2;PMS_P1;PMS_P2;Temp;Humidity;BMP_temperature;BMP_pressure;BME280_temperature;BME280_humidity;BME280_pressure;Samples;Min_cycle;Max_cycle;Signal;HPM_P1;HPM_P2
2021/03/02 00:00:18;;;;;;;64.30;35.90;;;;;;;4.37;62.50;100869.82;251629;1155;115218;-66
2021/03/02 00:05:41;;;;;;;66.00;38.03;;;;;;;4.35;62.56;100875.12;250852;1153;115136;-64
2021/03/02 00:10:44;;;;;;;67.90;35.40;;;;;;;4.27;62.60;100861.09;251358;1155;115313;-64
2021/03/02 00:15:47;;;;;;;65.70;36.60;;;;;;;4.15;62.43;100863.84;251373;1155;116010;-64
2021/03/02 00:21:00;;;;;;;66.80;37.85;;;;;;;4.06;62.46;100866.52;251343;1155;115972;-66
2021/03/02 00:26:05;;;;;;;78.23;41.93;;;;;;;3.99;63.08;100865.67;251424;1155;115572;-66
2021/03/02 00:31:07;;;;;;;75.30;43.07;;;;;;;3.99;62.89;100858.64;251350;1155;115332;-66
2021/03/02 00:36:11;;;;;;;80.20;42.10;;;;;;;4.02;62.84;100858.63;251342;1155;115455;-68
2021/03/02 00:41:14;;;;;;;79.15;43.55;;;;;;;4.04;63.19;100858.61;250803;1156;115262;-66
2021/03/02 00:46:17;;;;;;;75.70;41.80;;;;;;;4.05;63.04;100855.11;251351;1155;115863;-67
2021/03/02 00:51:21;;;;;;;73.20;41.75;;;;;;;4.05;63.40;100862.14;251534;1155;115846;-66
2021/03/02 00:56:24;;;;;;;82.15;41.25;;;;;;;4.06;63.41;100858.62;251302;1155;115060;-65
2021/03/02 01:01:28;;;;;;;69.03;39.13;;;;;;;4.01;63.05;100854.25;251335;1155;114519;-65
2021/03/02 01:06:31;;;;;;;75.15;40.05;;;;;;;3.98;62.92;100842.86;251478;1155;114730;-65
2021/03/02 01:11:35;;;;;;;78.30;41.23;;;;;;;3.94;63.21;100847.28;251436;1155;115292;-67
2021/03/02 01:16:40;;;;;;;82.20;41.50;;;;;;;3.86;63.20;100830.63;249980;1151;114954;-65
2021/03/02 01:21:43;;;;;;;87.70;43.60;;;;;;;3.78;63.18;100835.94;251411;1155;115173;-69
2021/03/02 01:26:46;;;;;;;90.40;45.20;;;;;;;3.78;63.54;100824.55;251431;1155;115163;-67
2021/03/02 01:31:50;;;;;;;88.20;46.10;;;;;;;3.82;63.65;100818.37;251428;1155;115436;-70
2021/03/02 01:36:54;;;;;;;91.77;46.40;;;;;;;3.81;63.52;100810.49;251437;1155;115161;-68
2021/03/02 01:41:59;;;;;;;87.30;44.80;;;;;;;3.77;63.50;100807.88;251393;1155;115613;-65
2021/03/02 01:47:02;;;;;;;87.90;42.50;;;;;;;3.68;63.40;100800.02;251437;1155;115910;-66
2021/03/02 01:52:05;;;;;;;84.43;43.20;;;;;;;3.60;63.73;100793.93;251404;1155;114651;-65
2021/03/02 01:57:08;;;;;;;88.10;44.48;;;;;;;3.51;63.61;100797.47;251507;1155;115034;-67
2021/03/02 02:02:17;;;;;;;88.23;44.85;;;;;;;3.47;63.83;100797.50;250106;1155;115302;-65
2021/03/02 02:07:32;;;;;;;85.08;43.83;;;;;;;3.42;63.94;100789.61;251384;1155;114825;-67
2021/03/02 02:12:47;;;;;;;90.10;45.30;;;;;;;3.42;64.10;100779.08;250606;1155;114888;-66
2021/03/02 02:17:51;;;;;;;;;;;;;;;3.40;63.84;100772.10;251472;1155;115074;-66
2021/03/02 02:23:12;;;;;;;88.15;45.23;;;;;;;3.35;63.89;100769.47;251576;1154;101090;-67
2021/03/02 02:28:17;;;;;;;84.70;45.25;;;;;;;3.30;64.13;100766.88;251396;1154;115031;-67
2021/03/02 02:33:21;;;;;;;83.10;43.73;;;;;;;3.26;63.77;100774.77;251463;1155;115525;-67
2021/03/02 02:38:24;;;;;;;86.03;44.45;;;;;;;3.19;63.98;100767.78;251599;1154;115115;-68
2021/03/02 02:43:28;;;;;;;90.40;46.10;;;;;;;3.11;64.14;100777.47;251447;1155;115277;-66
2021/03/02 02:48:31;;;;;;;96.40;48.40;;;;;;;3.04;64.17;100766.97;251513;1155;114680;-66
2021/03/02 02:53:35;;;;;;;94.90;47.40;;;;;;;2.99;64.29;100760.86;251431;1155;114845;-66
2021/03/02 02:59:04;;;;;;;111.10;53.60;;;;;;;3.00;64.60;100753.84;251445;1156;115175;-67
2021/03/02 03:04:11;;;;;;;109.30;53.80;;;;;;;3.02;64.65;100763.48;251426;1155;115179;-66
2021/03/02 03:09:16;;;;;;;115.95;55.55;;;;;;;3.03;64.51;100765.23;251428;1155;115435;-67
2021/03/02 03:14:21;;;;;;;;;;;;;;;3.05;64.42;100778.36;251393;1155;115046;-68
2021/03/02 03:19:29;;;;;;;126.40;60.60;;;;;;;3.02;64.52;100784.52;251502;1156;101060;-68
2021/03/02 03:24:33;;;;;;;124.40;60.70;;;;;;;2.94;64.46;100778.39;251504;1155;115349;-68
2021/03/02 03:29:38;;;;;;;128.10;61.35;;;;;;;2.88;64.48;100781.03;249774;1155;116132;-66
2021/03/02 03:34:43;;;;;;;131.57;64.57;;;;;;;2.77;64.66;100781.06;251430;1155;115974;-65
2021/03/02 03:39:46;;;;;;;149.33;70.17;;;;;;;2.67;64.90;100771.45;251477;1155;116806;-64
2021/03/02 03:44:49;;;;;;;153.23;71.70;;;;;;;2.60;64.82;100777.59;251443;1155;115677;-67
2021/03/02 03:49:52;;;;;;;136.85;64.65;;;;;;;2.54;65.00;100767.96;251510;1155;115128;-65
2021/03/02 03:54:57;;;;;;;137.80;60.60;;;;;;;2.54;65.18;100773.21;251508;1155;115346;-67
2021/03/02 04:00:04;;;;;;;156.07;67.53;;;;;;;2.49;65.32;100768.86;251420;1155;115453;-64
2021/03/02 04:05:10;;;;;;;152.18;66.98;;;;;;;2.47;65.41;100773.23;250206;1156;115241;-67
2021/03/02 04:10:15;;;;;;;155.10;68.80;;;;;;;2.42;65.72;100770.63;251553;1153;115258;-66
2021/03/02 04:15:18;;;;;;;149.85;69.25;;;;;;;2.30;65.63;100767.98;251483;1147;115276;-66
2021/03/02 04:20:22;;;;;;;151.10;67.30;;;;;;;2.24;66.13;100755.75;251487;1154;115079;-68
2021/03/02 04:25:24;;;;;;;130.27;61.27;;;;;;;2.22;65.90;100764.50;251505;1155;115695;-67
2021/03/02 04:30:28;;;;;;;124.15;59.75;;;;;;;2.25;66.25;100764.50;251461;1155;115304;-65
2021/03/02 04:35:34;;;;;;;123.80;60.10;;;;;;;2.24;66.41;100766.27;251376;1155;115428;-69
2021/03/02 04:40:37;;;;;;;119.35;52.85;;;;;;;2.31;66.44;100759.22;251435;1155;115706;-67
2021/03/02 04:45:40;;;;;;;123.05;55.88;;;;;;;2.26;66.32;100768.88;251392;1155;115327;-68
2021/03/02 04:50:43;;;;;;;124.67;57.93;;;;;;;2.26;66.51;100759.23;251441;1156;115551;-67
2021/03/02 04:55:47;;;;;;;126.67;57.27;;;;;;;2.30;66.66;100762.73;251408;1155;115107;-68
2021/03/02 05:00:50;;;;;;;111.63;51.43;;;;;;;2.34;66.84;100756.59;251476;1148;115291;-66
2021/03/02 05:05:53;;;;;;;106.80;50.25;;;;;;;2.34;66.96;100762.75;251469;1155;115486;-70
2021/03/02 05:10:55;;;;;;;115.40;52.25;;;;;;;2.32;66.79;100755.74;251440;1155;116676;-69
2021/03/02 05:15:57;;;;;;;107.47;50.63;;;;;;;2.32;67.02;100758.37;251438;1155;115876;-69
2021/03/02 05:21:01;;;;;;;109.10;51.00;;;;;;;2.29;66.73;100766.25;251420;1155;115277;-68
2021/03/02 05:26:04;;;;;;;100.67;48.80;;;;;;;2.23;66.72;100768.88;250917;1155;115541;-69
2021/03/02 05:31:07;;;;;;;114.23;51.80;;;;;;;2.22;67.01;100768.00;248947;1155;115272;-67
2021/03/02 05:36:10;;;;;;;106.20;49.10;;;;;;;2.21;67.25;100766.26;251182;1155;115933;-66
2021/03/02 05:41:14;;;;;;;110.47;49.37;;;;;;;2.20;67.02;100761.86;251410;1155;115618;-67
2021/03/02 05:46:22;;;;;;;122.13;54.87;;;;;;;2.22;67.20;100748.75;248864;1155;115559;-66
2021/03/02 05:51:26;;;;;;;113.13;53.80;;;;;;;2.32;67.67;100763.63;250946;1155;115462;-66
2021/03/02 05:56:29;;;;;;;104.35;49.68;;;;;;;2.40;67.68;100766.23;250050;1155;115937;-69
2021/03/02 06:01:31;;;;;;;101.15;46.75;;;;;;;2.39;67.50;100764.50;251092;1155;115172;-69
2021/03/02 06:06:34;;;;;;;107.60;52.20;;;;;;;2.36;67.39;100758.35;248748;1155;115131;-67
2021/03/02 06:11:38;;;;;;;100.73;43.50;;;;;;;2.30;67.55;100763.61;248214;1150;115417;-69
2021/03/02 06:16:48;;;;;;;106.13;51.00;;;;;;;2.30;67.31;100781.13;250175;1155;115125;-66
2021/03/02 06:21:52;;;;;;;101.90;47.70;;;;;;;2.33;67.67;100786.38;251312;1155;115355;-65
2021/03/02 06:27:13;;;;;;;100.60;50.50;;;;;;;2.37;67.66;100778.48;251414;1155;115784;-69
2021/03/02 06:32:16;;;;;;;101.30;49.07;;;;;;;2.51;67.93;100769.72;250785;1155;115112;-68
2021/03/02 06:37:19;;;;;;;109.57;50.70;;;;;;;2.55;67.64;100771.49;248924;1151;115302;-67
2021/03/02 06:42:28;;;;;;;122.05;54.95;;;;;;;2.56;68.03;100760.96;249414;1149;115811;-68
2021/03/02 06:47:33;;;;;;;104.10;46.80;;;;;;;2.58;68.05;100763.57;249292;1155;115864;-69
2021/03/02 06:52:46;;;;;;;101.83;48.57;;;;;;;2.49;67.73;100766.23;249416;1155;116772;-67
2021/03/02 06:58:24;;;;;;;103.60;49.83;;;;;;;2.47;68.04;100760.09;250974;1155;115120;-68
2021/03/02 07:03:35;;;;;;;107.05;48.88;;;;;;;2.52;68.36;100748.71;249902;1150;115437;-68
2021/03/02 07:08:51;;;;;;;118.03;53.37;;;;;;;2.68;68.32;100746.91;249050;1153;117297;-67
2021/03/02 07:14:33;;;;;;;111.80;51.50;;;;;;;2.86;68.36;100732.86;249527;1150;117039;-68
2021/03/02 07:19:44;;;;;;;106.25;47.70;;;;;;;2.94;68.19;100732.83;249313;1155;115465;-67
2021/03/02 07:25:22;;;;;;;129.00;56.00;;;;;;;2.94;68.33;100733.69;249455;1151;116071;-66
2021/03/02 07:30:49;;;;;;;123.50;54.37;;;;;;;3.03;68.22;100740.69;249282;1149;116363;-67
2021/03/02 07:35:59;;;;;;;92.73;45.33;;;;;;;3.20;68.63;100745.88;249672;1155;115458;-68
2021/03/02 07:41:10;;;;;;;101.50;47.10;;;;;;;3.31;68.46;100747.56;249421;1149;116405;-65
2021/03/02 07:46:37;;;;;;;96.80;46.40;;;;;;;3.43;68.48;100746.64;249503;1151;114907;-69
2021/03/02 07:52:09;;;;;;;84.70;43.47;;;;;;;3.54;68.18;100741.31;249403;1151;116169;-66
2021/03/02 07:57:39;;;;;;;81.65;36.85;;;;;;;3.74;68.34;100744.69;249701;1150;115143;-67
2021/03/02 08:03:20;;;;;;;84.00;40.93;;;;;;;3.79;67.78;100745.52;249419;1149;117252;-67
2021/03/02 08:08:34;;;;;;;92.30;43.20;;;;;;;3.84;67.63;100740.24;250095;1151;115193;-68
2021/03/02 08:13:39;;;;;;;80.40;39.15;;;;;;;3.93;67.43;100750.69;251303;1155;115541;-68
2021/03/02 08:18:43;;;;;;;;;;;;;;;4.01;67.58;100748.89;251435;1155;115649;-68
2021/03/02 08:23:47;;;;;;;83.90;40.08;;;;;;;4.18;67.85;100745.25;251421;1155;101087;-69
2021/03/02 08:29:07;;;;;;;79.73;39.97;;;;;;;4.35;67.35;100740.70;251399;1155;115160;-69
2021/03/02 08:34:11;;;;;;;80.03;39.47;;;;;;;4.61;67.38;100742.20;251277;1155;115304;-69
2021/03/02 08:39:16;;;;;;;86.80;40.45;;;;;;;4.74;67.30;100747.32;251351;1155;116143;-70
2021/03/02 08:44:20;;;;;;;87.70;40.87;;;;;;;4.88;67.17;100751.58;251386;1156;115222;-69
2021/03/02 08:49:23;;;;;;;74.58;38.68;;;;;;;5.05;67.10;100748.75;251375;1155;115678;-69
2021/03/02 08:54:25;;;;;;;81.85;41.40;;;;;;;5.18;67.09;100747.70;251471;1155;115064;-69
2021/03/02 08:59:29;;;;;;;74.03;37.70;;;;;;;5.39;66.90;100739.50;251326;1155;115330;-69
2021/03/02 09:04:33;;;;;;;77.80;38.55;;;;;;;5.63;66.82;100732.13;251241;1155;116156;-68
2021/03/02 09:09:37;;;;;;;83.70;39.30;;;;;;;5.92;66.16;100742.27;251313;1155;115677;-69
2021/03/02 09:14:40;;;;;;;76.70;37.57;;;;;;;6.09;65.67;100739.40;251403;1155;115078;-69
2021/03/02 09:19:43;;;;;;;78.80;38.75;;;;;;;6.28;66.08;100740.81;251246;1156;116980;-68
2021/03/02 09:24:55;;;;;;;74.83;39.57;;;;;;;6.48;65.71;100745.77;251259;1155;115804;-71
2021/03/02 09:30:00;;;;;;;75.93;37.63;;;;;;;6.62;65.89;100740.22;251126;1155;115473;-70
2021/03/02 09:35:08;;;;;;;68.40;34.70;;;;;;;6.76;65.09;100754.09;251232;1155;115104;-69
2021/03/02 09:40:13;;;;;;;76.50;39.40;;;;;;;6.92;64.58;100762.59;249019;1149;116702;-69
2021/03/02 09:45:17;;;;;;;68.40;34.90;;;;;;;7.12;65.22;100759.55;251178;1155;115333;-70
2021/03/02 09:50:21;;;;;;;73.70;36.90;;;;;;;7.32;64.74;100765.31;251067;1155;116321;-71
2021/03/02 09:55:26;;;;;;;60.67;32.40;;;;;;;7.50;63.99;100764.03;251104;1155;116162;-72
2021/03/02 10:00:29;;;;;;;;;;;;;;;7.72;64.57;100745.91;251302;1155;115068;-71
2021/03/02 10:05:40;;;;;;;64.25;32.10;;;;;;;7.95;64.12;100740.08;251371;1156;102152;-71
2021/03/02 10:10:43;;;;;;;54.57;28.20;;;;;;;8.22;64.00;100738.53;251420;1155;115603;-70
2021/03/02 10:15:46;;;;;;;51.03;27.57;;;;;;;8.48;63.28;100737.00;251391;1155;115407;-70
2021/03/02 10:21:08;;;;;;;50.45;25.75;;;;;;;8.70;62.82;100734.67;251374;1155;115314;-71
2021/03/02 10:26:11;;;;;;;50.80;26.40;;;;;;;8.92;62.72;100725.18;251447;1155;116210;-71
2021/03/02 10:31:14;;;;;;;52.30;25.47;;;;;;;9.19;62.20;100718.21;251375;1155;115274;-70
2021/03/02 10:36:20;;;;;;;50.70;24.65;;;;;;;9.53;62.26;100708.36;251284;1155;115210;-69
2021/03/02 10:41:22;;;;;;;44.57;22.67;;;;;;;9.88;61.89;100700.16;251364;1155;115738;-70
2021/03/02 10:46:27;;;;;;;31.60;15.90;;;;;;;10.19;61.06;100684.05;251358;1155;116108;-70
2021/03/02 10:51:31;;;;;;;30.45;16.90;;;;;;;10.52;60.95;100691.80;251360;1155;115595;-69
2021/03/02 10:56:33;;;;;;;40.50;17.00;;;;;;;10.79;60.17;100689.94;251333;1156;115400;-69
2021/03/02 11:01:36;;;;;;;37.37;20.13;;;;;;;11.01;59.48;100687.37;251349;1155;115698;-69
2021/03/02 11:06:43;;;;;;;29.65;16.20;;;;;;;11.20;59.48;100691.99;251393;1155;115974;-71
2021/03/02 11:11:45;;;;;;;31.98;16.10;;;;;;;11.36;58.22;100691.34;251292;1156;115267;-69
2021/03/02 11:16:47;;;;;;;32.00;16.90;;;;;;;11.51;58.25;100676.53;251367;1155;115578;-70
2021/03/02 11:21:50;;;;;;;27.38;14.43;;;;;;;11.65;58.06;100667.13;251353;1155;115988;-70
2021/03/02 11:26:52;;;;;;;22.70;12.45;;;;;;;11.78;57.65;100663.89;251398;1155;115349;-70
2021/03/02 11:31:54;;;;;;;25.10;12.80;;;;;;;11.89;57.15;100651.95;251360;1156;115751;-70
2021/03/02 11:36:57;;;;;;;21.45;11.50;;;;;;;11.99;56.31;100658.64;251292;1155;115338;-70
2021/03/02 11:41:59;;;;;;;20.77;10.30;;;;;;;12.10;56.24;100653.73;251372;1155;115722;-68
2021/03/02 11:47:01;;;;;;;19.90;10.33;;;;;;;12.24;56.00;100653.14;251393;1155;115876;-69
2021/03/02 11:52:04;;;;;;;24.47;11.30;;;;;;;12.47;55.44;100646.81;251358;1155;115429;-69
2021/03/02 11:57:06;;;;;;;28.63;12.00;;;;;;;12.75;54.64;100651.78;251307;1155;115628;-68
2021/03/02 12:02:09;;;;;;;23.85;12.05;;;;;;;13.06;54.66;100643.23;251282;1155;115495;-69
2021/03/02 12:07:12;;;;;;;24.90;13.00;;;;;;;13.36;53.96;100645.44;251402;1155;115959;-69
2021/03/02 12:12:14;;;;;;;22.00;13.15;;;;;;;13.55;54.10;100640.91;251289;1156;115514;-69
2021/03/02 12:17:16;;;;;;;26.78;14.73;;;;;;;13.81;53.80;100630.75;251439;1155;115909;-69
2021/03/02 12:22:19;;;;;;;26.53;13.33;;;;;;;14.08;53.64;100625.82;251409;1155;115713;-67
2021/03/02 12:27:21;;;;;;;30.35;15.50;;;;;;;14.38;53.37;100626.91;251338;1155;115604;-68
2021/03/02 12:32:23;;;;;;;26.80;15.03;;;;;;;14.49;52.23;100620.13;251387;1155;115850;-68
2021/03/02 12:37:26;;;;;;;26.05;14.45;;;;;;;14.49;51.71;100609.41;251352;1155;115620;-69
2021/03/02 12:42:28;;;;;;;34.13;15.33;;;;;;;14.52;51.46;100602.11;251351;1155;115508;-69
2021/03/02 12:47:30;;;;;;;36.20;15.30;;;;;;;14.56;51.55;100594.77;251342;1155;115430;-68
2021/03/02 12:52:33;;;;;;;29.80;14.75;;;;;;;14.61;50.60;100595.41;251306;1155;115671;-70
2021/03/02 12:57:36;;;;;;;34.10;16.07;;;;;;;14.63;50.93;100588.13;251282;1156;115465;-69
2021/03/02 13:02:42;;;;;;;30.27;15.77;;;;;;;14.70;50.76;100592.20;251478;1155;115939;-68
2021/03/02 13:07:45;;;;;;;28.10;16.77;;;;;;;14.77;50.94;100592.74;251303;1155;115574;-68
2021/03/02 13:12:48;;;;;;;34.15;16.65;;;;;;;14.98;50.74;100588.91;251416;1155;115703;-68
2021/03/02 13:17:51;;;;;;;32.33;17.18;;;;;;;15.21;50.19;100587.59;251351;1155;115609;-69
2021/03/02 13:22:53;;;;;;;35.15;18.05;;;;;;;15.45;50.39;100571.91;251401;1155;116387;-69
2021/03/02 13:27:59;;;;;;;37.25;17.10;;;;;;;15.64;49.15;100570.87;251336;1155;115917;-68
2021/03/02 13:33:14;;;;;;;36.10;18.23;;;;;;;15.79;48.99;100569.98;251372;1155;115473;-70
2021/03/02 13:38:18;;;;;;;34.27;17.63;;;;;;;15.91;48.71;100571.09;251339;1155;115926;-69
2021/03/02 13:43:21;;;;;;;32.83;17.63;;;;;;;15.83;48.11;100560.82;251182;1155;115604;-68
2021/03/02 13:48:24;;;;;;;33.70;17.15;;;;;;;15.56;48.22;100560.59;251061;1154;115726;-69
2021/03/02 13:53:31;;;;;;;32.70;15.63;;;;;;;15.26;47.61;100563.22;251146;1155;115958;-70
2021/03/02 13:58:33;;;;;;;32.10;16.40;;;;;;;14.88;47.19;100559.05;251061;1155;115647;-70
2021/03/02 14:03:39;;;;;;;33.05;17.35;;;;;;;14.64;47.63;100561.27;251023;1155;117097;-68
2021/03/02 14:08:44;;;;;;;41.17;20.50;;;;;;;14.72;48.07;100560.84;250597;1155;115905;-69
2021/03/02 14:13:53;;;;;;;41.65;18.80;;;;;;;14.64;47.96;100560.41;249665;1149;115528;-70
2021/03/02 14:19:03;;;;;;;37.70;16.50;;;;;;;14.51;47.76;100553.98;249361;1155;115419;-70
2021/03/02 14:24:14;;;;;;;31.70;15.20;;;;;;;14.30;47.14;100546.12;249349;1149;117899;-71
2021/03/02 14:29:26;;;;;;;37.63;16.63;;;;;;;14.13;47.43;100551.47;249795;1153;117606;-69
2021/03/02 14:34:39;;;;;;;34.63;16.88;;;;;;;14.03;47.67;100547.55;248661;1149;117630;-70
2021/03/02 14:39:49;;;;;;;32.15;15.60;;;;;;;13.98;47.40;100544.25;249202;1150;116790;-72
2021/03/02 14:45:01;;;;;;;27.15;13.15;;;;;;;13.90;47.35;100550.88;249484;1148;116556;-68
2021/03/02 14:50:12;;;;;;;28.65;13.33;;;;;;;13.88;46.79;100530.48;249764;1150;116811;-70
2021/03/02 14:55:24;;;;;;;30.03;13.13;;;;;;;13.76;46.84;100534.67;249351;1151;117651;-70
2021/03/02 15:00:31;;;;;;;25.70;11.73;;;;;;;13.71;46.85;100536.70;249491;1150;117834;-69
2021/03/02 15:05:44;;;;;;;27.05;11.85;;;;;;;13.67;46.55;100525.28;248929;1155;117194;-70
2021/03/02 15:11:01;;;;;;;25.45;11.60;;;;;;;13.62;46.92;100527.34;249305;1148;115879;-69
2021/03/02 15:16:09;;;;;;;30.40;13.40;;;;;;;13.59;46.33;100524.82;249456;1155;116394;-69
2021/03/02 15:21:21;;;;;;;27.88;12.68;;;;;;;13.56;46.36;100526.79;249325;1150;117011;-69
2021/03/02 15:26:32;;;;;;;36.15;13.45;;;;;;;13.52;45.98;100517.16;249656;1150;116372;-71
2021/03/02 15:31:45;;;;;;;35.73;13.40;;;;;;;13.49;46.08;100528.91;249470;1147;117909;-71
2021/03/02 15:36:51;;;;;;;31.23;13.27;;;;;;;13.42;46.03;100519.46;249281;1148;116157;-67
2021/03/02 15:41:59;;;;;;;31.20;13.50;;;;;;;13.37;46.47;100513.46;250356;1155;115936;-68
2021/03/02 15:47:21;;;;;;;32.38;14.70;;;;;;;13.32;46.10;100510.16;251275;1154;115555;-69
2021/03/02 15:52:24;;;;;;;34.75;14.50;;;;;;;13.27;46.42;100505.02;251154;1155;115527;-69
2021/03/02 15:57:29;;;;;;;34.00;14.03;;;;;;;13.19;46.28;100500.03;250819;1155;115432;-68
2021/03/02 16:02:38;;;;;;;34.60;15.18;;;;;;;13.14;46.50;100504.72;249905;1155;115914;-69
2021/03/02 16:07:47;;;;;;;38.03;15.33;;;;;;;13.08;45.61;100505.05;251204;1155;116224;-68
2021/03/02 16:12:53;;;;;;;41.60;15.70;;;;;;;13.01;46.56;100496.47;251213;1155;116574;-68
2021/03/02 16:17:58;;;;;;;39.00;15.55;;;;;;;12.97;45.97;100507.35;251171;1155;116002;-69
2021/03/02 16:23:06;;;;;;;33.30;14.60;;;;;;;12.90;46.63;100514.80;251274;1155;116991;-69
2021/03/02 16:28:09;;;;;;;38.45;14.55;;;;;;;12.81;45.85;100514.40;251186;1153;116199;-68
2021/03/02 16:33:12;;;;;;;39.40;15.63;;;;;;;12.74;46.03;100516.49;251013;1155;115634;-68
2021/03/02 16:38:15;;;;;;;33.80;14.70;;;;;;;12.68;46.42;100519.45;251039;1147;116058;-66
2021/03/02 16:43:18;;;;;;;30.30;14.75;;;;;;;12.62;46.39;100531.27;251101;1155;116798;-69
2021/03/02 16:48:20;;;;;;;37.03;15.20;;;;;;;12.54;46.09;100538.78;251199;1155;115749;-68
2021/03/02 16:53:27;;;;;;;41.57;16.47;;;;;;;12.46;45.95;100532.91;251205;1155;115481;-67
2021/03/02 16:58:30;;;;;;;37.23;16.07;;;;;;;12.40;46.10;100538.52;251190;1155;115771;-68
2021/03/02 17:03:48;;;;;;;41.97;17.27;;;;;;;12.34;46.58;100550.38;251326;1155;116089;-69
2021/03/02 17:08:52;;;;;;;35.63;16.97;;;;;;;12.24;46.13;100544.57;250405;1155;115352;-70
2021/03/02 17:13:54;;;;;;;43.90;17.20;;;;;;;12.16;46.71;100552.06;251219;1155;115668;-69
2021/03/02 17:18:57;;;;;;;44.60;17.20;;;;;;;12.09;46.12;100555.91;251479;1153;115718;-69
2021/03/02 17:23:59;;;;;;;37.60;16.70;;;;;;;12.06;46.37;100553.41;251244;1154;116809;-69
2021/03/02 17:29:01;;;;;;;40.95;17.20;;;;;;;12.05;46.22;100556.98;251130;1155;115790;-70
2021/03/02 17:34:03;;;;;;;39.30;17.00;;;;;;;12.00;46.68;100551.86;251208;1155;115825;-69
2021/03/02 17:39:06;;;;;;;42.20;17.50;;;;;;;11.94;46.71;100557.45;251221;1155;115975;-68
2021/03/02 17:44:09;;;;;;;42.00;18.50;;;;;;;11.86;46.82;100553.41;251194;1155;116057;-68
2021/03/02 17:49:12;;;;;;;41.73;17.23;;;;;;;11.78;46.76;100554.53;251375;1154;115476;-67
2021/03/02 17:54:14;;;;;;;37.45;17.75;;;;;;;11.71;46.78;100550.40;251131;1155;115982;-68
2021/03/02 17:59:16;;;;;;;48.50;20.38;;;;;;;11.63;46.92;100554.34;251144;1155;115807;-68
2021/03/02 18:04:19;;;;;;;41.27;19.43;;;;;;;11.53;46.97;100546.71;251166;1155;115884;-69
2021/03/02 18:09:21;;;;;;;47.73;20.73;;;;;;;11.45;47.36;100553.31;251278;1155;115632;-67
2021/03/02 18:14:23;;;;;;;44.95;19.60;;;;;;;11.38;47.04;100547.37;251364;1155;115503;-69
2021/03/02 18:19:26;;;;;;;46.10;20.90;;;;;;;11.32;47.13;100544.95;251293;1155;116198;-69
2021/03/02 18:24:29;;;;;;;52.40;21.63;;;;;;;11.21;47.15;100544.49;251152;1155;115888;-68
2021/03/02 18:29:32;;;;;;;49.43;24.10;;;;;;;11.14;47.25;100546.56;251210;1155;115338;-69
2021/03/02 18:34:34;;;;;;;53.03;22.68;;;;;;;11.03;47.18;100552.30;251164;1155;116617;-69
2021/03/02 18:39:37;;;;;;;56.23;23.73;;;;;;;10.96;47.60;100544.61;251167;1155;115796;-68
2021/03/02 18:44:39;;;;;;;52.33;25.13;;;;;;;10.92;47.64;100543.87;250767;1155;115653;-69
2021/03/02 18:49:43;;;;;;;55.75;24.10;;;;;;;10.86;47.55;100544.97;251094;1156;115331;-69
2021/03/02 18:54:50;;;;;;;58.07;26.00;;;;;;;10.78;47.92;100549.73;249230;1155;117386;-70
2021/03/02 18:59:54;;;;;;;56.00;26.77;;;;;;;10.73;47.86;100553.48;250223;1155;116276;-68
2021/03/02 19:05:03;;;;;;;64.20;27.10;;;;;;;10.63;48.38;100551.20;249743;1149;115893;-69
2021/03/02 19:10:05;;;;;;;60.55;26.35;;;;;;;10.53;47.99;100552.47;251294;1153;118015;-67
2021/03/02 19:15:08;;;;;;;56.75;26.30;;;;;;;10.43;48.31;100545.76;251200;1155;115419;-68
2021/03/02 19:20:12;;;;;;;57.68;29.10;;;;;;;10.33;48.47;100550.55;251266;1155;115733;-67
2021/03/02 19:25:15;;;;;;;59.90;27.97;;;;;;;10.22;48.29;100541.17;251203;1155;116284;-66
2021/03/02 19:30:18;;;;;;;59.70;28.90;;;;;;;10.16;48.71;100539.63;251267;1155;115547;-68
2021/03/02 19:35:20;;;;;;;56.80;28.90;;;;;;;10.12;48.99;100544.19;251128;1155;115504;-66
2021/03/02 19:40:23;;;;;;;69.40;30.33;;;;;;;10.07;49.18;100554.11;251235;1155;117116;-65
2021/03/02 19:45:25;;;;;;;73.10;32.33;;;;;;;10.04;49.04;100551.55;251165;1155;115887;-67
2021/03/02 19:50:28;;;;;;;72.33;33.07;;;;;;;10.01;48.84;100558.77;251240;1155;116584;-66
2021/03/02 19:55:30;;;;;;;78.95;36.05;;;;;;;9.93;48.82;100557.25;251061;1156;116696;-68
2021/03/02 20:00:33;;;;;;;80.13;36.60;;;;;;;9.85;49.29;100548.69;251517;1154;115321;-66
2021/03/02 20:05:35;;;;;;;75.77;36.43;;;;;;;9.76;49.22;100554.31;251710;1154;115185;-66
2021/03/02 20:10:39;;;;;;;83.55;38.10;;;;;;;9.68;49.36;100572.30;252099;1148;115531;31
2021/03/02 20:15:41;;;;;;;87.13;39.63;;;;;;;9.57;49.38;100577.97;250322;1149;115326;-65
2021/03/02 20:20:45;;;;;;;86.73;41.97;;;;;;;9.42;49.67;100576.70;250910;1156;115277;-66
2021/03/02 20:25:47;;;;;;;91.67;41.70;;;;;;;9.37;49.65;100577.76;250153;1151;275102;-66
2021/03/02 20:30:50;;;;;;;85.75;41.05;;;;;;;9.30;50.27;100577.08;250811;1158;101725;-67
2021/03/02 20:35:53;;;;;;;85.20;40.60;;;;;;;9.24;50.26;100572.86;251397;1151;101292;-64
2021/03/02 20:40:57;;;;;;;87.55;40.28;;;;;;;9.22;50.43;100582.65;251032;1158;101212;-67
2021/03/02 20:46:00;;;;;;;78.10;39.50;;;;;;;9.21;50.30;100586.23;250789;1151;103148;-65
2021/03/02 20:51:03;;;;;;;85.00;40.53;;;;;;;9.28;50.92;100589.56;250172;1159;103065;-65
2021/03/02 20:56:07;;;;;;;91.73;45.87;;;;;;;9.21;50.70;100598.66;249202;1152;103130;-66
2021/03/02 21:01:16;;;;;;;95.67;43.60;;;;;;;9.05;50.52;100598.24;250865;1152;101003;-67
2021/03/02 21:06:39;;;;;;;88.43;42.73;;;;;;;8.83;50.12;100603.34;251081;1152;101184;-66
2021/03/02 21:11:42;;;;;;;93.00;41.50;;;;;;;8.82;51.62;100603.38;249538;1158;103122;-65
2021/03/02 21:16:46;;;;;;;92.63;42.63;;;;;;;8.56;51.30;100604.13;250508;1152;101981;-65
2021/03/02 21:21:49;;;;;;;100.80;48.93;;;;;;;8.33;51.93;100604.76;250568;1158;101601;-66
2021/03/02 21:26:52;;;;;;;104.70;44.93;;;;;;;8.39;51.87;100609.91;250597;1151;101474;-65
2021/03/02 21:31:55;;;;;;;91.10;43.70;;;;;;;8.11;51.15;100612.41;250548;1150;101349;-67
2021/03/02 21:36:58;;;;;;;102.40;45.40;;;;;;;7.82;51.58;100614.05;251114;1151;101095;-69
2021/03/02 21:42:01;;;;;;;103.83;45.48;;;;;;;7.57;51.81;100601.42;251413;1157;102267;-68
2021/03/02 21:47:09;;;;;;;99.35;46.85;;;;;;;7.43;52.17;100607.94;250973;1151;101116;-68
2021/03/02 21:52:16;;;;;;;95.43;47.93;;;;;;;7.45;52.65;100609.66;251443;1157;101163;-73
2021/03/02 21:57:19;;;;;;;102.47;47.23;;;;;;;7.59;53.17;100606.66;251078;1151;101962;-73
2021/03/02 22:02:26;;;;;;;93.10;43.60;;;;;;;7.49;52.75;100608.66;250948;1158;101325;-73
2021/03/02 22:07:29;;;;;;;99.93;44.83;;;;;;;7.26;53.28;100601.25;251239;1151;102144;-74
2021/03/02 22:12:31;;;;;;;101.63;47.27;;;;;;;7.09;53.40;100603.42;251029;1157;101852;-74
2021/03/02 22:17:35;;;;;;;99.40;44.55;;;;;;;6.92;52.82;100602.93;251762;1151;101966;-71
2021/03/02 22:22:37;;;;;;;102.20;43.67;;;;;;;6.73;52.86;100605.98;251888;1157;101347;-71
2021/03/02 22:27:39;;;;;;;93.37;43.47;;;;;;;6.60;53.77;100596.56;251778;1151;102218;-72
2021/03/02 22:32:41;;;;;;;97.60;44.40;;;;;;;6.49;53.76;100599.43;251822;1157;101968;-71
2021/03/02 22:37:44;;;;;;;107.85;46.55;;;;;;;6.37;54.20;100591.73;251586;1149;101231;-69
2021/03/02 22:42:47;;;;;;;93.97;42.00;;;;;;;6.27;54.73;100595.45;251827;1157;101843;-74
2021/03/02 22:47:59;;;;;;;;;;;;;;;;;;;;;